This is the latest recevied weather packets stored in our database for station/object K4SPB-4. If no packets are shown the sender has not sent any weather packets the latest 10 day(s).
| Time | Temp. | Humidity | Pressure | Rain* | Wind** | Luminosity | Snow |
|---|---|---|---|---|---|---|---|
| 1777572035 | 17.78° C | 47% | 1016 hPa | 0 mm | - | - | - |
| 1777571432 | 16.67° C | 46% | 1016.3 hPa | 0 mm | - | - | - |
| 1777567237 | 16.11° C | 49% | 1016.6 hPa | 0 mm | - | - | - |
| 1777562420 | 15.56° C | 51% | 1016.7 hPa | 0 mm | - | - | - |
| 1777561836 | 15.56° C | 51% | 1016.5 hPa | 0 mm | - | - | - |
| 1777560031 | 14.44° C | 57% | 1016.5 hPa | 0 mm | - | - | - |
| 1777549840 | 12.22° C | 73% | 1016.4 hPa | 0 mm | - | - | - |
| 1777548630 | 12.22° C | 74% | 1016.1 hPa | 0 mm | - | - | - |
| 1777545616 | 12.78° C | 71% | 1015.6 hPa | 0 mm | - | - | - |
| 1777539656 | 13.89° C | 72% | 1015 hPa | 0 mm | - | - | - |
| 1777536625 | 14.44° C | 72% | 1014.1 hPa | 0 mm | - | - | - |
| 1777536041 | 14.44° C | 72% | 1014 hPa | 0 mm | - | - | - |
| 1777531826 | 15° C | 71% | 1014.2 hPa | 0 mm | - | - | - |
| 1777531225 | 15.56° C | 71% | 1014.5 hPa | 0 mm | - | - | - |
| 1777528835 | 16.11° C | 69% | 1014.5 hPa | 0 mm | - | - | - |
| 1777521025 | 17.22° C | 66% | 1014.2 hPa | 0 mm | - | - | - |
| 1777515023 | 17.78° C | 73% | 1014.2 hPa | 0 mm | - | - | - |
| 1777512040 | 17.78° C | 79% | 1013.1 hPa | 0 mm | - | - | - |
| 1777506633 | 18.89° C | 73% | 1012 hPa | 0 mm | - | - | - |
| 1777504224 | 18.89° C | 73% | 1011.5 hPa | 0 mm | - | - | - |
| 1777502417 | 18.89° C | 72% | 1012 hPa | 0 mm | - | - | - |
| 1777501855 | 18.89° C | 72% | 1011.9 hPa | 0 mm | - | - | - |
| 1777499425 | 18.33° C | 73% | 1012.7 hPa | 0 mm | - | - | - |
| 1777492238 | 18.33° C | 78% | 1013.8 hPa | 0 mm | - | - | - |
| 1777486821 | 17.78° C | 84% | 1014.9 hPa | 0 mm | - | - | - |
* Rain latest hour (hover to see other rain measurements)
** Current wind speed in m/s (hover to see current wind gust speed)